Terminal Aerodrome Forecast
Issued by NWS Louisville, KY

Home | Current Version | Previous Version | Text Only | Print | Product List | Glossary On
Versions: 1 2 3 4 5 6 7 8 9 10 11 12 13 14 15 16 17 18 19 20
370
FTUS43 KLMK 260531
TAFLEX
TAF
KLEX 260531Z 2606/2706 VRB03KT P6SM SCT150
     FM260800 20003KT 4SM BR SCT250
      TEMPO 2609/2613 1SM BR
     FM261300 26006KT P6SM SCT050 PROB30 2620/2624 VRB10G20KT 4SM
      TSRA BR BKN035CB
     FM270000 VRB03KT P6SM SCT250=

USA.gov is the U.S. government's official web portal to all federal, state and local government web resources and services.